createdAt,value
2019-06-07T00:01:49.841Z,10.13
2019-06-07T00:04:22.197Z,11.33
2019-06-07T00:06:54.469Z,12.33
2019-06-07T00:09:26.737Z,12.88
2019-06-07T00:11:59.445Z,9.55
2019-06-07T00:14:31.695Z,9.50
2019-06-07T00:17:05.101Z,9.40
2019-06-07T00:19:37.378Z,7.65
2019-06-07T00:22:18.423Z,7.45
2019-06-07T00:24:43.703Z,7.30
2019-06-07T00:27:18.278Z,6.55
2019-06-07T00:29:49.963Z,5.37
2019-06-07T00:32:22.460Z,5.83
2019-06-07T00:34:54.722Z,4.50
2019-06-07T00:37:27.016Z,5.20
2019-06-07T00:40:13.902Z,5.70
2019-06-07T00:42:33.274Z,5.70
2019-06-07T00:45:11.213Z,5.37
2019-06-07T00:47:44.263Z,5.03
2019-06-07T00:50:20.421Z,4.35
2019-06-07T00:53:14.799Z,4.83
2019-06-07T00:55:27.671Z,4.47
2019-06-07T00:57:59.365Z,4.58
2019-06-07T01:00:31.781Z,4.85
2019-06-07T01:03:04.196Z,5.28
2019-06-07T01:05:36.531Z,4.50
2019-06-07T01:08:08.833Z,5.15
2019-06-07T01:10:53.001Z,5.20
2019-06-07T01:13:16.718Z,4.62
2019-06-07T01:15:49.663Z,4.65
2019-06-07T01:18:43.550Z,5.45
2019-06-07T01:20:55.914Z,6.10
2019-06-07T01:24:04.672Z,6.22
2019-06-07T01:26:02.061Z,5.67
2019-06-07T01:28:34.367Z,5.30
2019-06-07T01:31:06.669Z,5.03
2019-06-07T01:33:50.806Z,236.10
2019-06-07T01:36:17.779Z,170.55
2019-06-07T01:38:48.757Z,11.33
2019-06-07T01:41:24.393Z,12.68
2019-06-07T01:43:55.191Z,11.85
2019-06-07T01:46:28.712Z,11.25
2019-06-07T01:49:01.389Z,11.00
2019-06-07T01:51:33.680Z,11.30
2019-06-07T01:54:49.282Z,171.20
2019-06-07T01:56:40.235Z,209.57
2019-06-07T01:59:12.523Z,10.53
2019-06-07T02:01:45.267Z,10.72
2019-06-07T02:04:21.639Z,249.25
2019-06-07T02:06:51.713Z,204.03
2019-06-07T02:09:27.993Z,184.60
2019-06-07T02:11:58.160Z,180.78
2019-06-07T02:14:33.551Z,117.42
2019-06-07T02:17:07.082Z,169.62
2019-06-07T02:19:39.476Z,14.90
2019-06-07T02:22:11.811Z,203.80
2019-06-07T02:24:44.211Z,312.97
2019-06-07T02:27:16.638Z,224.00
2019-06-07T02:29:49.020Z,18.52
2019-06-07T02:32:22.317Z,21.50
2019-06-07T02:34:55.395Z,18.75
2019-06-07T02:37:33.607Z,16.40
2019-06-07T02:40:01.757Z,17.07
2019-06-07T02:42:38.992Z,18.25
2019-06-07T02:45:10.748Z,99.30
2019-06-07T02:47:46.342Z,9.03
2019-06-07T02:50:19.607Z,9.15
2019-06-07T02:52:52.981Z,6.55
2019-06-07T02:55:29.082Z,6.05
2019-06-07T02:57:59.292Z,5.83
2019-06-07T03:01:00.067Z,217.57
2019-06-07T03:03:18.039Z,220.65
2019-06-07T03:05:51.386Z,204.35
2019-06-07T03:08:23.760Z,240.32
2019-06-07T03:10:57.413Z,260.85
2019-06-07T03:13:34.909Z,42.35
2019-06-07T03:16:08.313Z,124.30
2019-06-07T03:18:57.539Z,60.63
2019-06-07T03:21:32.026Z,177.60
2019-06-07T03:24:05.737Z,7.10
2019-06-07T03:27:30.490Z,7.45
2019-06-07T03:29:15.606Z,7.75
2019-06-07T03:34:20.366Z,9.80
2019-06-07T03:36:52.627Z,10.08
2019-06-07T03:39:25.294Z,12.03
2019-06-07T03:42:06.133Z,9.68
2019-06-07T03:44:32.976Z,9.70
2019-06-07T03:47:05.806Z,9.15
2019-06-07T03:49:42.117Z,8.45
2019-06-07T03:52:12.002Z,7.85
2019-06-07T03:54:44.298Z,7.65
2019-06-07T03:57:17.642Z,7.15
2019-06-07T03:59:49.916Z,6.85
2019-06-07T04:02:22.147Z,7.80
2019-06-07T04:04:54.321Z,9.28
2019-06-07T04:07:28.985Z,9.05
2019-06-07T04:10:01.618Z,7.95
2019-06-07T04:12:38.638Z,7.87
2019-06-07T04:15:07.979Z,8.78
2019-06-07T04:18:00.481Z,7.17
2019-06-07T04:20:15.616Z,6.25
2019-06-07T04:22:47.998Z,6.65
2019-06-07T04:25:20.239Z,9.60
2019-06-07T04:27:54.479Z,8.78
2019-06-07T04:30:32.128Z,8.30
2019-06-07T04:33:03.792Z,8.38
2019-06-07T04:35:39.177Z,10.43
2019-06-07T04:38:14.619Z,10.98
2019-06-07T04:40:47.368Z,11.85
2019-06-07T04:43:19.716Z,9.15
2019-06-07T04:45:52.043Z,9.10
2019-06-07T04:48:30.926Z,9.50
2019-06-07T04:51:05.561Z,10.10
2019-06-07T04:53:40.897Z,10.08
2019-06-07T04:56:11.867Z,11.73
2019-06-07T04:58:44.148Z,13.05
2019-06-07T05:01:27.323Z,17.65
2019-06-07T05:03:50.608Z,14.83
2019-06-07T05:06:25.115Z,14.35
2019-06-07T05:08:58.730Z,13.72
2019-06-07T05:11:31.993Z,14.63
2019-06-07T05:14:06.219Z,10.45
2019-06-07T05:16:44.767Z,9.38
2019-06-07T05:19:18.410Z,8.28
2019-06-07T05:22:03.731Z,9.35
2019-06-07T05:24:34.825Z,8.48
2019-06-07T05:27:07.006Z,8.23
2019-06-07T05:29:41.642Z,6.35
2019-06-07T05:32:14.648Z,6.42
2019-06-07T05:37:19.695Z,6.17
2019-06-07T05:39:53.964Z,5.05
2019-06-07T05:42:28.359Z,6.35
2019-06-07T05:45:00.628Z,5.85
2019-06-07T05:47:38.451Z,4.80
2019-06-07T05:52:44.353Z,5.25
2019-06-07T05:57:50.635Z,4.55
2019-06-07T06:00:19.793Z,4.75
2019-06-07T06:03:04.854Z,5.95
2019-06-07T06:07:59.295Z,5.17
2019-06-07T06:10:31.604Z,5.03
2019-06-07T06:13:04.087Z,5.05
2019-06-07T06:15:45.320Z,4.65
2019-06-07T06:18:11.547Z,5.10
2019-06-07T06:21:04.913Z,5.03
2019-06-07T06:23:17.820Z,4.03
2019-06-07T06:25:57.028Z,3.90
2019-06-07T06:28:27.415Z,3.50
2019-06-07T06:31:00.827Z,3.05
2019-06-07T06:33:34.724Z,2.65
2019-06-07T06:36:06.862Z,3.08
2019-06-07T06:38:39.676Z,2.92
2019-06-07T06:41:16.247Z,3.95
2019-06-07T06:46:37.499Z,3.45
2019-06-07T06:48:55.327Z,3.47
2019-06-07T06:51:26.904Z,3.62
2019-06-07T06:54:00.165Z,498.55
2019-06-07T06:56:32.695Z,3.10
2019-06-07T07:01:42.538Z,3.10
2019-06-07T07:06:48.064Z,3.15
2019-06-07T07:09:21.367Z,3.30
2019-06-07T07:12:10.763Z,3.37
2019-06-07T07:14:45.560Z,2.70
2019-06-07T07:17:17.401Z,2.98
2019-06-07T07:19:55.293Z,3.33
2019-06-07T07:22:27.499Z,2.95
2019-06-07T07:25:03.058Z,3.75
2019-06-07T07:27:35.261Z,2.35
2019-06-07T07:30:36.122Z,2.70
2019-06-07T07:32:46.733Z,2.47
2019-06-07T07:35:19.134Z,2.17
2019-06-07T07:37:57.034Z,2.10
2019-06-07T07:42:59.638Z,340.43
2019-06-07T07:45:32.044Z,498.88
2019-06-07T07:48:15.475Z,3.17
2019-06-07T07:50:40.105Z,2.47
2019-06-07T07:53:12.423Z,2.40
2019-06-07T07:55:45.760Z,2.42
2019-06-07T07:58:21.225Z,2.42
2019-06-07T08:01:07.159Z,2.77
2019-06-07T08:03:27.531Z,237.12
2019-06-07T08:06:00.361Z,520.52
2019-06-07T08:08:35.070Z,2.52
2019-06-07T08:11:07.613Z,3.20
2019-06-07T08:13:40.574Z,2.85
2019-06-07T08:16:19.050Z,2.12
2019-06-07T08:18:58.523Z,2.77
2019-06-07T08:21:29.578Z,2.10
2019-06-07T08:24:05.622Z,3.12
2019-06-07T08:26:39.819Z,2.47
2019-06-07T08:29:12.639Z,2.27
2019-06-07T08:31:50.827Z,2.27
2019-06-07T08:34:22.740Z,480.48
2019-06-07T08:36:59.156Z,535.30
2019-06-07T08:39:32.491Z,2.45
2019-06-07T08:42:21.261Z,1.72
2019-06-07T08:44:41.222Z,2.30
2019-06-07T08:47:20.518Z,2.55
2019-06-07T08:49:50.677Z,156.75
2019-06-07T08:52:23.772Z,505.37
2019-06-07T08:55:03.317Z,483.15
2019-06-07T08:57:33.000Z,400.65
2019-06-07T09:00:42.416Z,1.80
2019-06-07T09:02:41.944Z,1.90
2019-06-07T09:05:14.924Z,10.58
2019-06-07T09:07:47.341Z,372.33
2019-06-07T09:10:22.302Z,335.40
2019-06-07T09:13:00.328Z,255.80
2019-06-07T09:15:30.055Z,411.82
2019-06-07T09:18:37.815Z,2.57
2019-06-07T09:20:45.964Z,290.60
2019-06-07T09:23:18.557Z,2.80
2019-06-07T09:26:01.363Z,2.67
2019-06-07T09:28:26.273Z,2.75
2019-06-07T09:31:07.846Z,338.37
2019-06-07T09:33:34.660Z,317.10
2019-06-07T09:36:12.846Z,371.35
2019-06-07T09:38:45.808Z,393.42
2019-06-07T09:41:19.239Z,300.80
2019-06-07T09:44:04.740Z,359.83
2019-06-07T09:46:26.030Z,3.87
2019-06-07T09:49:28.942Z,3.25
2019-06-07T09:51:33.752Z,295.15
2019-06-07T09:54:10.863Z,3.65
2019-06-07T09:56:41.192Z,3.17
2019-06-07T09:59:14.834Z,3.42
2019-06-07T10:01:47.298Z,2.52
2019-06-07T10:04:31.387Z,2.10
2019-06-07T10:07:04.056Z,397.90
2019-06-07T10:12:12.652Z,290.62
2019-06-07T10:14:49.724Z,246.32
2019-06-07T10:17:27.103Z,3.70
2019-06-07T10:20:02.567Z,3.25
2019-06-07T10:22:41.061Z,6.10
2019-06-07T10:25:17.706Z,419.10
2019-06-07T10:27:56.076Z,364.17
2019-06-07T10:30:33.053Z,338.27
2019-06-07T10:33:06.819Z,352.75
2019-06-07T10:35:40.710Z,2.70
2019-06-07T10:38:20.846Z,348.68
2019-06-07T10:40:54.225Z,286.65
2019-06-07T10:43:26.665Z,154.05
2019-06-07T10:46:01.360Z,298.62
2019-06-07T10:48:34.221Z,367.98
2019-06-07T10:51:06.581Z,327.57
2019-06-07T10:53:39.721Z,3.20
2019-06-07T10:56:13.434Z,2.92
2019-06-07T10:58:45.935Z,274.15
2019-06-07T11:01:18.258Z,2.72
2019-06-07T11:03:50.528Z,3.50
2019-06-07T11:06:22.929Z,5.00
2019-06-07T11:08:55.419Z,4.83
2019-06-07T11:11:28.016Z,5.05
2019-06-07T11:14:00.669Z,6.85
2019-06-07T11:16:33.940Z,390.95
2019-06-07T11:19:08.045Z,388.62
2019-06-07T11:21:40.845Z,371.68
2019-06-07T11:24:24.732Z,388.40
2019-06-07T11:27:00.213Z,78.02
2019-06-07T11:29:33.706Z,381.00
2019-06-07T11:32:06.376Z,420.52
2019-06-07T11:34:43.226Z,10.95
2019-06-07T11:37:16.202Z,407.88
2019-06-07T11:39:48.975Z,325.75
2019-06-07T11:42:23.873Z,397.23
2019-06-07T11:44:57.498Z,431.52
2019-06-07T11:47:30.086Z,3.47
2019-06-07T11:50:02.569Z,488.00
2019-06-07T11:52:38.833Z,480.00
2019-06-07T11:55:13.572Z,440.98
2019-06-07T12:00:24.317Z,490.68
2019-06-07T12:02:56.701Z,476.80
2019-06-07T12:05:29.292Z,425.07
2019-06-07T12:08:02.765Z,412.55
2019-06-07T12:10:42.789Z,419.60
2019-06-07T12:13:19.555Z,389.45
2019-06-07T12:15:57.523Z,452.70
2019-06-07T12:18:30.030Z,465.40
2019-06-07T12:21:02.361Z,425.32
2019-06-07T12:23:37.253Z,437.00
2019-06-07T12:26:10.698Z,488.68
2019-06-07T12:28:43.021Z,501.43
2019-06-07T12:31:15.367Z,397.63
2019-06-07T12:33:49.278Z,414.52
2019-06-07T12:36:22.006Z,443.13
2019-06-07T12:38:54.593Z,427.47
2019-06-07T12:41:32.387Z,440.45
2019-06-07T12:44:10.047Z,428.05
2019-06-07T12:46:42.423Z,415.95
2019-06-07T12:49:15.088Z,389.10
2019-06-07T12:51:47.487Z,475.02
2019-06-07T12:54:20.058Z,427.50
2019-06-07T12:56:52.857Z,519.08
2019-06-07T12:59:30.410Z,490.62
2019-06-07T13:02:03.568Z,412.85
2019-06-07T13:04:41.661Z,555.70
2019-06-07T13:07:18.061Z,516.02
2019-06-07T13:10:02.242Z,477.85
2019-06-07T13:12:37.355Z,507.92
2019-06-07T13:15:10.459Z,522.37
2019-06-07T13:17:42.924Z,467.12
2019-06-07T13:20:16.186Z,3.77
2019-06-07T13:22:49.867Z,473.82
2019-06-07T13:25:43.539Z,489.13
2019-06-07T13:28:00.042Z,541.77
2019-06-07T13:30:36.483Z,497.93
2019-06-07T13:33:11.447Z,538.95
2019-06-07T13:35:45.232Z,3.02
2019-06-07T13:38:28.880Z,473.65
2019-06-07T13:41:02.169Z,544.65
2019-06-07T13:43:35.529Z,480.40
2019-06-07T13:46:07.868Z,463.87
2019-06-07T13:48:44.274Z,384.20
2019-06-07T13:51:18.983Z,433.62
2019-06-07T13:53:52.827Z,433.57
2019-06-07T13:56:26.047Z,508.57
2019-06-07T13:58:59.372Z,461.38
2019-06-07T14:01:31.781Z,475.05
2019-06-07T14:04:05.141Z,434.00
2019-06-07T14:06:37.472Z,448.93
2019-06-07T14:09:11.245Z,423.37
2019-06-07T14:11:50.625Z,434.95
2019-06-07T14:14:20.215Z,442.10
2019-06-07T14:16:54.614Z,385.85
2019-06-07T14:19:27.011Z,358.93
2019-06-07T14:22:02.992Z,351.27
2019-06-07T14:24:35.441Z,411.00
2019-06-07T14:27:07.857Z,384.32
2019-06-07T14:29:40.787Z,376.60
2019-06-07T14:32:13.198Z,466.82
2019-06-07T14:34:45.549Z,375.07
2019-06-07T14:37:19.969Z,392.68
2019-06-07T14:39:52.355Z,3.35
2019-06-07T14:42:25.355Z,4.40
2019-06-07T14:44:57.987Z,4.30
2019-06-07T14:47:30.298Z,3.90
2019-06-07T14:50:08.315Z,3.45
2019-06-07T14:52:41.605Z,4.37
2019-06-07T14:55:13.996Z,5.12
2019-06-07T14:57:46.411Z,4.22
2019-06-07T15:00:20.387Z,5.25
2019-06-07T15:02:52.685Z,3.92
2019-06-07T15:05:28.636Z,3.30
2019-06-07T15:08:01.075Z,3.33
2019-06-07T15:10:34.007Z,117.40
2019-06-07T15:13:07.609Z,369.48
2019-06-07T15:15:40.032Z,298.82
2019-06-07T15:18:12.720Z,281.87
2019-06-07T15:20:46.272Z,399.52
2019-06-07T15:23:18.564Z,412.12
2019-06-07T15:25:51.166Z,328.80
2019-06-07T15:28:23.648Z,377.18
2019-06-07T15:30:56.038Z,390.38
2019-06-07T15:33:29.694Z,332.02
2019-06-07T15:36:04.304Z,282.98
2019-06-07T15:38:37.176Z,305.52
2019-06-07T15:41:09.759Z,291.95
2019-06-07T15:43:42.418Z,326.00
2019-06-07T15:46:14.746Z,49.10
2019-06-07T15:48:47.074Z,265.15
2019-06-07T15:51:19.572Z,361.00
2019-06-07T15:53:52.811Z,4.80
2019-06-07T15:56:25.102Z,404.32
2019-06-07T15:58:57.464Z,379.87
2019-06-07T16:01:31.108Z,5.95
2019-06-07T16:04:03.493Z,365.82
2019-06-07T16:06:36.277Z,330.57
2019-06-07T16:09:09.152Z,319.02
2019-06-07T16:11:43.644Z,409.90
2019-06-07T16:14:17.582Z,376.45
2019-06-07T16:16:49.923Z,426.30
2019-06-07T16:19:22.220Z,369.02
2019-06-07T16:21:54.533Z,336.95
2019-06-07T16:24:29.612Z,314.00
2019-06-07T16:27:04.923Z,341.63
2019-06-07T16:29:38.518Z,355.50
2019-06-07T16:32:12.023Z,380.87
2019-06-07T16:34:45.881Z,351.37
2019-06-07T16:37:18.497Z,336.00
2019-06-07T16:39:54.053Z,327.98
2019-06-07T16:42:26.462Z,389.10
2019-06-07T16:45:00.132Z,320.60
2019-06-07T16:47:37.038Z,319.75
2019-06-07T16:50:14.762Z,330.55
2019-06-07T16:52:49.214Z,366.80
2019-06-07T16:55:22.550Z,291.88
2019-06-07T16:57:54.862Z,314.52
2019-06-07T17:00:27.648Z,312.30
2019-06-07T17:02:59.908Z,351.90
2019-06-07T17:05:32.352Z,331.47
2019-06-07T17:08:05.714Z,7.97
2019-06-07T17:10:38.241Z,8.43
2019-06-07T17:13:10.676Z,6.92
2019-06-07T17:15:44.934Z,6.47
2019-06-07T17:18:19.019Z,6.25
2019-06-07T17:20:51.334Z,239.10
2019-06-07T17:23:23.654Z,420.12
2019-06-07T17:25:57.125Z,6.83
2019-06-07T17:28:29.646Z,369.37
2019-06-07T17:31:02.085Z,360.90
2019-06-07T17:33:35.356Z,352.93
2019-06-07T17:36:07.786Z,401.10
2019-06-07T17:38:40.453Z,344.87
2019-06-07T17:41:13.847Z,320.12
2019-06-07T17:43:56.396Z,356.95
2019-06-07T17:46:20.291Z,339.88
2019-06-07T17:48:53.262Z,334.02
2019-06-07T17:51:26.555Z,344.75
2019-06-07T17:53:59.970Z,341.42
2019-06-07T17:56:32.478Z,351.33
2019-06-07T17:59:06.221Z,353.42
2019-06-07T18:01:41.683Z,301.27
2019-06-07T18:04:14.149Z,279.00
2019-06-07T18:06:47.364Z,294.40
2019-06-07T18:09:20.519Z,335.40
2019-06-07T18:11:55.958Z,301.48
2019-06-07T18:14:28.312Z,352.57
2019-06-07T18:17:01.679Z,316.90
2019-06-07T18:19:34.037Z,336.05
2019-06-07T18:22:06.411Z,7.05
2019-06-07T18:24:39.780Z,7.87
2019-06-07T18:27:12.013Z,7.45
2019-06-07T18:29:44.315Z,7.10
2019-06-07T18:32:16.658Z,7.70
2019-06-07T18:34:48.907Z,7.72
2019-06-07T18:37:21.264Z,7.00
2019-06-07T18:39:53.616Z,7.75
2019-06-07T18:42:25.779Z,7.67
2019-06-07T18:44:59.348Z,7.85
2019-06-07T18:47:31.761Z,7.50
2019-06-07T18:50:05.543Z,8.03
2019-06-07T18:52:39.454Z,7.42
2019-06-07T18:55:13.358Z,7.80
2019-06-07T18:57:48.047Z,8.43
2019-06-07T19:00:23.321Z,7.90
2019-06-07T19:02:56.124Z,7.95
2019-06-07T19:05:28.672Z,7.25
2019-06-07T19:08:00.950Z,8.75
2019-06-07T19:10:33.195Z,9.20
2019-06-07T19:13:05.651Z,6.87
2019-06-07T19:15:38.072Z,8.23
2019-06-07T19:18:10.364Z,6.53
2019-06-07T19:20:42.640Z,7.20
2019-06-07T19:23:14.909Z,6.70
2019-06-07T19:25:48.392Z,6.58
2019-06-07T19:28:20.688Z,7.28
2019-06-07T19:30:53.088Z,7.03
2019-06-07T19:33:25.384Z,6.83
2019-06-07T19:35:57.631Z,8.10
2019-06-07T19:38:29.845Z,7.45
2019-06-07T19:41:18.041Z,5.85
2019-06-07T19:43:38.207Z,7.50
2019-06-07T19:46:10.431Z,7.50
2019-06-07T19:48:42.688Z,7.40
2019-06-07T19:51:14.997Z,307.52
2019-06-07T19:53:47.312Z,350.82
2019-06-07T19:56:19.556Z,306.87
2019-06-07T19:58:53.836Z,6.35
2019-06-07T20:01:26.122Z,271.77
2019-06-07T20:03:58.413Z,329.32
2019-06-07T20:06:30.588Z,5.87
2019-06-07T20:09:04.861Z,5.50
2019-06-07T20:11:37.474Z,218.02
2019-06-07T20:14:09.742Z,281.32
2019-06-07T20:16:41.965Z,420.05
2019-06-07T20:19:14.258Z,434.37
2019-06-07T20:21:46.474Z,416.65
2019-06-07T20:24:26.974Z,396.25
2019-06-07T20:26:56.144Z,372.15
2019-06-07T20:29:30.222Z,346.82
2019-06-07T20:32:02.598Z,324.30
2019-06-07T20:34:34.932Z,317.50
2019-06-07T20:37:07.740Z,303.02
2019-06-07T20:39:41.348Z,367.50
2019-06-07T20:42:13.890Z,6.15
2019-06-07T20:44:46.093Z,6.47
2019-06-07T20:47:18.376Z,6.95
2019-06-07T20:49:52.620Z,6.80
2019-06-07T20:52:24.911Z,6.10
2019-06-07T20:54:58.447Z,6.08
2019-06-07T20:57:30.866Z,6.27
2019-06-07T21:00:12.605Z,5.85
2019-06-07T21:02:38.947Z,5.42
2019-06-07T21:05:14.364Z,5.90
2019-06-07T21:07:46.703Z,5.33
2019-06-07T21:10:19.030Z,5.15
2019-06-07T21:12:51.379Z,4.30
2019-06-07T21:15:23.589Z,4.28
2019-06-07T21:17:55.751Z,3.55
2019-06-07T21:20:28.188Z,5.60
2019-06-07T21:23:00.734Z,4.37
2019-06-07T21:25:33.132Z,4.67
2019-06-07T21:28:05.386Z,3.65
2019-06-07T21:30:37.647Z,3.20
2019-06-07T21:33:09.814Z,2.77
2019-06-07T21:35:42.899Z,4.00
2019-06-07T21:38:15.639Z,313.10
2019-06-07T21:40:47.908Z,266.75
2019-06-07T21:43:20.071Z,2.70
2019-06-07T21:46:04.770Z,8.70
2019-06-07T21:48:26.246Z,342.60
2019-06-07T21:50:58.520Z,292.32
2019-06-07T21:53:30.728Z,263.02
2019-06-07T21:56:04.848Z,237.00
2019-06-07T21:58:37.143Z,242.82
2019-06-07T22:01:12.378Z,235.57
2019-06-07T22:03:47.441Z,257.18
2019-06-07T22:06:19.738Z,298.07
2019-06-07T22:08:52.106Z,2.62
2019-06-07T22:11:24.391Z,2.50
2019-06-07T22:13:56.633Z,2.83
2019-06-07T22:16:29.568Z,2.90
2019-06-07T22:19:01.851Z,2.72
2019-06-07T22:21:34.025Z,2.67
2019-06-07T22:24:06.852Z,2.87
2019-06-07T22:26:39.292Z,3.35
2019-06-07T22:29:12.416Z,2.87
2019-06-07T22:31:45.843Z,3.08
2019-06-07T22:34:19.197Z,3.08
2019-06-07T22:36:51.654Z,3.00
2019-06-07T22:39:23.811Z,3.15
2019-06-07T22:41:55.999Z,3.52
2019-06-07T22:44:28.287Z,3.35
2019-06-07T22:47:01.585Z,3.58
2019-06-07T22:49:33.849Z,3.10
2019-06-07T22:52:09.372Z,335.75
2019-06-07T22:54:41.210Z,241.48
2019-06-07T22:57:16.673Z,250.07
2019-06-07T22:59:50.068Z,261.12
2019-06-07T23:02:22.401Z,260.80
2019-06-07T23:04:54.686Z,233.82
2019-06-07T23:07:26.983Z,318.73
2019-06-07T23:09:59.303Z,11.68
2019-06-07T23:12:31.617Z,312.38
2019-06-07T23:15:04.975Z,281.65
2019-06-07T23:17:37.240Z,452.43
2019-06-07T23:20:11.786Z,332.40
2019-06-07T23:22:44.267Z,257.20
2019-06-07T23:25:20.923Z,317.18
2019-06-07T23:27:50.735Z,317.62
2019-06-07T23:30:23.249Z,375.70
2019-06-07T23:32:55.438Z,286.52
2019-06-07T23:35:27.734Z,455.23
2019-06-07T23:37:59.942Z,413.47
2019-06-07T23:40:32.220Z,314.77
2019-06-07T23:43:04.385Z,325.15
2019-06-07T23:45:37.647Z,3.50
2019-06-07T23:48:09.831Z,3.42
2019-06-07T23:50:43.133Z,4.37
2019-06-07T23:53:15.652Z,299.85
2019-06-07T23:55:48.000Z,4.28
2019-06-07T23:58:20.574Z,4.20
